Flight Track Log - Related Links

Times and Time Zones

All times are in EDT time to prevent confusion due to time zone crossing. See the N4824K flight status page for this flight to view local times or setup timezone preferences in your user account.

Time Position Orientation Groundspeed Altitude Reporting Facility
EDT Latitude Longitude Course Direction KTS MPH feet Rate Location/Type
Sat 12:17:35 PM 27.8425 -97.0572 360° North 129 148 1,500  Level Houston Center
Sat 12:19:10 PM 27.9008 -97.0569 360° North 132 152 2,500 611 Climbing Houston Center
Sat 12:20:12 PM 27.9422 -97.0569 360° North 139 160 3,100 532 Climbing Houston Center
Sat 12:21:14 PM 27.9842 -97.0581 359° North 145 167 3,600 435 Climbing Houston Center
Sat 12:22:16 PM 28.0289 -97.0606 357° North 153 176 4,000 432 Climbing Houston Center
Sat 12:23:19 PM 28.0736 -97.0622 358° North 155 178 4,500 444 Climbing Houston Center
Sat 12:24:04 PM 28.1064 -97.0628 359° North 157 181 4,800 387 Climbing Houston Center
Sat 12:24:21 PM 28.1183 -97.0636 356° North 156 180 4,900 380 Climbing Houston Center
Sat 12:25:23 PM 28.1675 -97.0653 358° North 157 181 5,300 435 Climbing Houston Center
Sat 12:26:25 PM 28.2133 -97.0661 359° North 161 185 5,800 387 Climbing Houston Center
Sat 12:27:27 PM 28.2597 -97.0686 357° North 161 185 6,100 339 Climbing Houston Center
Sat 12:28:29 PM 28.2806 -97.0236 62° Northeast 159 183 6,500 387 Climbing Houston Center
Sat 12:29:31 PM 28.3053 -96.9828 55° Northeast 158 182 6,900 435 Climbing Houston Center
Sat 12:30:33 PM 28.3319 -96.9436 52° Northeast 158 182 7,400 435 Climbing Houston Center
Sat 12:31:35 PM 28.3572 -96.9036 54° Northeast 157 181 7,800 480 Climbing Houston Center
Sat 12:32:38 PM 28.3822 -96.8639 54° Northeast 156 180 8,400 480 Climbing Houston Center
Sat 12:33:40 PM 28.4139 -96.8192 51° Northeast 156 180 8,800 339 Climbing Houston Center
Sat 12:34:42 PM 28.4453 -96.7869 42° Northeast 155 178 9,100 290 Climbing Houston Center
Sat 12:35:44 PM 28.4908 -96.7886 358° North 160 184 9,400 339 Climbing Houston Center
Sat 12:36:46 PM 28.5358 -96.7922 356° North 162 186 9,800 387 Climbing Houston Center
Sat 12:37:48 PM 28.5789 -96.7933 359° North 159 183 10,200 387 Climbing Houston Center
Sat 12:38:50 PM 28.6303 -96.7919 North 157 181 10,600 339 Climbing Houston Center
Sat 12:39:52 PM 28.6728 -96.7914 North 156 180 10,900 384 Climbing Houston Center
Sat 12:40:55 PM 28.7136 -96.7894 North 150 173 11,400 432 Climbing Houston Center
Sat 12:41:57 PM 28.7544 -96.7878 North 149 171 11,800 339 Climbing Houston Center
Sat 12:42:59 PM 28.7947 -96.7850 North 149 171 12,100 339 Climbing Houston Center
Sat 12:44:01 PM 28.8369 -96.7831 North 150 173 12,500 339 Climbing Houston Center
Sat 12:45:03 PM 28.8867 -96.7803 North 149 171 12,800 387 Climbing Houston Center
Sat 12:46:05 PM 28.9275 -96.7789 North 147 169 13,300 435 Climbing Houston Center
Sat 12:47:07 PM 28.9683 -96.7789 360° North 147 169 13,700 384 Climbing Houston Center
Sat 12:48:10 PM 29.0072 -96.7772 North 144 166 14,100 384 Climbing Houston Center
Sat 12:49:12 PM 29.0456 -96.7764 North 141 162 14,500 387 Climbing Houston Center
Sat 12:50:14 PM 29.0911 -96.7733 North 138 159 14,900 290 Climbing Houston Center
Sat 12:51:16 PM 29.1292 -96.7717 North 138 159 15,100 97 Climbing Houston Center
Sat 12:52:18 PM 29.1694 -96.7694 North 139 160 15,100  Level Houston Center
Sat 12:53:20 PM 29.2111 -96.7669 North 146 168 15,100  Level Houston Center
Sat 12:54:22 PM 29.2558 -96.7658 North 155 178 15,100  Level Houston Center
Sat 12:55:25 PM 29.3097 -96.7636 North 159 183 15,100  Level Houston Center
Sat 12:56:27 PM 29.3542 -96.7625 North 160 184 15,100  Level Houston Center
Sat 12:57:29 PM 29.3989 -96.7597 North 160 184 15,100  Level Houston Center
Sat 12:58:31 PM 29.4447 -96.7572 North 161 185 15,100  Level Houston Center
Sat 12:59:33 PM 29.4875 -96.7578 359° North 160 184 15,100  Level Houston Center
Sat 01:00:35 PM 29.5425 -96.7542 North 161 185 15,100  Level Houston Center
Sat 01:01:37 PM 29.5872 -96.7533 North 161 185 15,100  Level Houston Center
Sat 01:02:39 PM 29.6319 -96.7514 North 161 185 15,100  Level Houston Center
Sat 01:03:42 PM 29.6769 -96.7494 North 161 185 15,100  Level Houston Center
Sat 01:04:44 PM 29.7222 -96.7486 North 161 185 15,100  Level Houston Center
Sat 01:05:46 PM 29.7753 -96.7461 North 158 182 15,100  Level Houston Center
Sat 01:06:48 PM 29.8203 -96.7444 North 159 183 15,100  Level Houston Center
Sat 01:07:50 PM 29.8644 -96.7422 North 159 183 15,100  Level Houston Center
Sat 01:08:52 PM 29.9103 -96.7403 North 161 185 15,100  Level Houston Center
Sat 01:09:54 PM 29.9544 -96.7381 North 160 184 15,100  Level Houston Center
Sat 01:10:56 PM 29.9981 -96.7356 North 159 183 15,100  Level Houston Center
Sat 01:11:58 PM 30.0519 -96.7344 North 160 184 15,100  Level Houston Center
Sat 01:13:00 PM 30.0969 -96.7319 North 160 184 15,100  Level Houston Center
Sat 01:14:02 PM 30.1403 -96.7311 North 161 185 15,100  Level Houston Center
Sat 01:15:04 PM 30.1847 -96.7289 North 161 185 15,100  Level Houston Center
Sat 01:16:06 PM 30.2292 -96.7278 North 161 185 15,100  Level Houston Center
Sat 01:17:08 PM 30.2825 -96.7250 North 160 184 15,100  Level Houston Center
Sat 01:18:10 PM 30.3297 -96.7228 North 163 188 15,100  Level Houston Center
Sat 01:19:13 PM 30.3756 -96.7189 North 164 189 15,100  Level Houston Center
Sat 01:20:14 PM 30.4211 -96.7200 359° North 164 189 15,100  Level Houston Center
Sat 01:21:17 PM 30.4672 -96.7167 North 164 189 15,100  Level Houston Center
Sat 01:22:19 PM 30.5214 -96.7150 North 164 189 15,100  Level Houston Center
Sat 01:23:21 PM 30.5675 -96.7131 North 164 189 15,100  Level Houston Center
Sat 01:24:23 PM 30.6147 -96.7103 North 166 191 15,100  Level Houston Center
Sat 01:25:25 PM 30.6614 -96.7089 North 166 191 15,100  Level Houston Center
Sat 01:26:27 PM 30.7072 -96.7072 North 166 191 15,100  Level Houston Center
Sat 01:27:29 PM 30.7547 -96.7050 North 167 192 15,100  Level Houston Center
Sat 01:28:31 PM 30.8106 -96.7022 North 167 192 15,100  Level Houston Center
Sat 01:29:33 PM 30.8575 -96.7017 North 167 192 15,100  Level Houston Center
Sat 01:30:35 PM 30.9036 -96.6978 North 167 192 15,100  Level Houston Center
Sat 01:31:37 PM 30.9494 -96.6958 North 167 192 15,100  Level Houston Center
Sat 01:32:39 PM 30.9953 -96.6947 North 167 192 15,100  Level Houston Center
Sat 01:33:41 PM 31.0503 -96.6922 North 166 191 15,100  Level Houston Center
Sat 01:34:43 PM 31.0967 -96.6908 North 166 191 15,100  Level Houston Center
Sat 01:35:45 PM 31.1433 -96.6892 North 166 191 15,100  Level Houston Center
Sat 01:36:47 PM 31.1900 -96.6864 North 166 191 15,100  Level Houston Center
Sat 01:37:49 PM 31.2367 -96.6858 North 167 192 15,100  Level Houston Center
Sat 01:38:51 PM 31.2786 -96.6661 22° Northeast 167 192 15,100  Level Houston Center
Sat 01:39:53 PM 31.3278 -96.6389 25° Northeast 165 190 15,100  Level Houston Center
Sat 01:40:55 PM 31.3694 -96.6186 23° Northeast 165 190 15,100  Level Houston Center
Sat 01:41:32 PM 31.3953 -96.6067 22° Northeast 166 191 15,100  Level Fort Worth Center
Sat 01:42:34 PM 31.4375 -96.5853 23° Northeast 166 191 15,100  Level Fort Worth Center
Sat 01:43:36 PM 31.4794 -96.5661 21° North 163 188 15,100  Level Fort Worth Center
Sat 01:44:38 PM 31.5217 -96.5442 24° Northeast 165 190 15,100  Level Fort Worth Center
Sat 01:45:40 PM 31.5719 -96.5197 22° Northeast 164 189 15,100  Level Fort Worth Center
Sat 01:46:43 PM 31.6139 -96.4992 23° Northeast 164 189 15,100  Level Fort Worth Center
Sat 01:47:45 PM 31.6572 -96.4778 23° Northeast 167 192 15,100  Level Fort Worth Center
Sat 01:48:47 PM 31.7008 -96.4550 24° Northeast 165 190 15,100  Level Fort Worth Center
Sat 01:49:49 PM 31.7439 -96.4342 22° Northeast 166 191 15,100  Level Fort Worth Center
Sat 01:50:51 PM 31.7869 -96.4139 22° Northeast 166 191 15,100  Level Fort Worth Center
Sat 01:51:53 PM 31.8286 -96.3914 25° Northeast 165 190 15,100  Level Fort Worth Center
Sat 01:52:55 PM 31.8803 -96.3678 21° North 166 191 15,100  Level Fort Worth Center
Sat 01:53:58 PM 31.9219 -96.3461 24° Northeast 166 191 15,100  Level Fort Worth Center
Sat 01:55:00 PM 31.9639 -96.3253 23° Northeast 166 191 15,100  Level Fort Worth Center
Sat 01:56:02 PM 32.0075 -96.3042 22° Northeast 165 190 15,100  Level Fort Worth Center
Sat 01:57:04 PM 32.0500 -96.2828 23° Northeast 167 192 15,100  Level Fort Worth Center
Sat 01:58:06 PM 32.1006 -96.2572 23° Northeast 165 190 15,100  Level Fort Worth Center
Sat 01:59:08 PM 32.1439 -96.2375 21° North 166 191 15,100  Level Fort Worth Center
Sat 02:00:11 PM 32.1864 -96.2156 24° Northeast 166 191 15,100 -48 Level Fort Worth Center
Sat 02:01:13 PM 32.2344 -96.2142 North 165 190 15,000 -48 Descending Fort Worth Center
Sat 02:02:15 PM 32.2847 -96.2206 354° North 167 192 15,000  Level Fort Worth Center
Sat 02:03:17 PM 32.3317 -96.2211 359° North 169 194 15,000  Level Fort Worth Center
Sat 02:04:19 PM 32.3825 -96.2211 360° North 170 196 15,000  Level Fort Worth Center
Sat 02:05:21 PM 32.4292 -96.2211 360° North 169 194 15,000  Level Fort Worth Center
Sat 02:06:23 PM 32.4792 -96.2211 360° North 169 194 15,000  Level Fort Worth Center
Sat 02:07:25 PM 32.5258 -96.2214 360° North 169 194 15,000  Level Fort Worth Center
Sat 02:08:28 PM 32.5767 -96.2222 359° North 169 194 15,000  Level Fort Worth Center
Sat 02:09:30 PM 32.6242 -96.2233 359° North 169 194 15,000  Level Fort Worth Center
Sat 02:10:32 PM 32.6750 -96.2242 359° North 169 194 15,000  Level Fort Worth Center
Sat 02:11:34 PM 32.7219 -96.2242 360° North 169 194 15,000  Level Fort Worth Center
Sat 02:12:36 PM 32.7717 -96.2256 359° North 166 191 15,000  Level Fort Worth Center
Sat 02:13:38 PM 32.8192 -96.2264 359° North 169 194 15,000  Level Fort Worth Center
Sat 02:14:40 PM 32.8669 -96.2264 360° North 170 196 15,000  Level Fort Worth Center
Sat 02:15:42 PM 32.9203 -96.2261 360° North 170 196 15,000  Level Fort Worth Center
Sat 02:16:44 PM 32.9675 -96.2281 358° North 171 197 15,000  Level Fort Worth Center
Sat 02:17:46 PM 33.0186 -96.2283 360° North 171 197 15,000  Level Fort Worth Center
Sat 02:18:48 PM 33.0661 -96.2281 360° North 171 197 15,000  Level Fort Worth Center
Sat 02:19:51 PM 33.1175 -96.2289 359° North 171 197 15,000  Level Fort Worth Center
Sat 02:20:53 PM 33.1650 -96.2294 359° North 171 197 15,000  Level Fort Worth Center
Sat 02:21:55 PM 33.2161 -96.2308 359° North 171 197 15,000  Level Fort Worth Center
Sat 02:22:57 PM 33.2639 -96.2300 North 171 197 15,000  Level Fort Worth Center
Sat 02:23:59 PM 33.3156 -96.2314 359° North 172 198 15,000  Level Fort Worth Center
Sat 02:25:01 PM 33.3639 -96.2311 360° North 172 198 15,000  Level Fort Worth Center
Sat 02:26:03 PM 33.4161 -96.2319 359° North 172 198 15,000  Level Fort Worth Center
Sat 02:27:05 PM 33.4644 -96.2333 359° North 173 199 15,000  Level Fort Worth Center
Sat 02:28:07 PM 33.5153 -96.2328 North 173 199 15,000  Level Fort Worth Center
Sat 02:29:09 PM 33.5631 -96.2342 359° North 171 197 15,000  Level Fort Worth Center
Sat 02:30:11 PM 33.6111 -96.2375 357° North 171 197 15,000  Level Fort Worth Center
Sat 02:31:13 PM 33.6619 -96.2417 356° North 171 197 15,000  Level Fort Worth Center
Sat 02:32:15 PM 33.7103 -96.2450 357° North 172 198 15,000  Level Fort Worth Center
Sat 02:33:17 PM 33.7614 -96.2492 356° North 171 197 15,000  Level Fort Worth Center
Sat 02:34:19 PM 33.8089 -96.2536 356° North 171 197 15,000  Level Fort Worth Center
Sat 02:35:21 PM 33.8542 -96.2589 354° North 171 197 15,000  Level Fort Worth Center
Sat 02:36:23 PM 33.9011 -96.2622 357° North 170 196 15,000  Level Fort Worth Center
Sat 02:37:25 PM 33.9478 -96.2672 355° North 170 196 15,000  Level Fort Worth Center
Sat 02:38:27 PM 34.0047 -96.2706 357° North 170 196 15,000  Level Fort Worth Center
Sat 02:39:29 PM 34.0522 -96.2750 356° North 170 196 15,000 48 Level Fort Worth Center
Sat 02:40:31 PM 34.1017 -96.2800 355° North 170 196 15,100 48 Climbing Fort Worth Center
Sat 02:41:33 PM 34.1483 -96.2825 357° North 170 196 15,100  Level Fort Worth Center
Sat 02:42:35 PM 34.1967 -96.2858 357° North 171 197 15,100  Level Fort Worth Center
Sat 02:43:37 PM 34.2425 -96.2900 356° North 169 194 15,100  Level Fort Worth Center
Sat 02:44:39 PM 34.2883 -96.2933 357° North 168 193 15,100  Level Fort Worth Center
Sat 02:45:41 PM 34.3347 -96.2983 355° North 167 192 15,100  Level Fort Worth Center
Sat 02:46:43 PM 34.3914 -96.3017 357° North 168 193 15,100  Level Fort Worth Center
Sat 02:47:45 PM 34.4381 -96.3058 356° North 169 194 15,100  Level Fort Worth Center
Sat 02:48:47 PM 34.4856 -96.3075 358° North 171 197 15,100  Level Fort Worth Center
Sat 02:49:49 PM 34.5328 -96.3128 355° North 171 197 15,100  Level Fort Worth Center
Sat 02:50:51 PM 34.5789 -96.3169 356° North 170 196 15,100  Level Fort Worth Center
Sat 02:51:53 PM 34.6256 -96.3208 356° North 169 194 15,100  Level Fort Worth Center
Sat 02:52:55 PM 34.6806 -96.3256 356° North 166 191 15,100  Level Fort Worth Center
Sat 02:53:57 PM 34.7278 -96.3306 355° North 166 191 15,100  Level Fort Worth Center
Sat 02:54:59 PM 34.7739 -96.3328 358° North 166 191 15,100  Level Fort Worth Center
Sat 02:56:02 PM 34.8203 -96.3372 356° North 166 191 15,100  Level Fort Worth Center
Sat 02:57:03 PM 34.8661 -96.3406 357° North 166 191 15,100  Level Fort Worth Center
Sat 02:58:05 PM 34.9225 -96.3464 355° North 168 193 15,100  Level Fort Worth Center
Sat 02:59:07 PM 34.9678 -96.3489 357° North 167 192 15,100 -151 Level Fort Worth Center
Sat 03:07:23 PM 35.3567 -96.3817 357° North 182 209 13,700 -237 Descending Fort Worth Center
Sat 03:08:25 PM 35.4086 -96.3867 356° North 184 212 12,900 -774 Descending Fort Worth Center
Sat 03:09:27 PM 35.4597 -96.3917 355° North 184 212 12,100 -919 Descending Fort Worth Center
Sat 03:10:29 PM 35.5228 -96.3969 356° North 185 213 11,000 -968 Descending Fort Worth Center
Sat 03:11:31 PM 35.5747 -96.4003 357° North 187 215 10,100 -919 Descending Fort Worth Center
Sat 03:12:33 PM 35.6244 -96.4050 356° North 185 213 9,100 -774 Descending Fort Worth Center
Sat 03:13:04 PM 35.6442 -96.4067 356° North 187 215 8,900 -766 Descending Kansas City Center
Sat 03:14:07 PM 35.7033 -96.4119 356° North 183 211 7,900 -871 Descending Kansas City Center
Sat 03:15:08 PM 35.7508 -96.4175 355° North 177 204 7,100 -836 Descending Kansas City Center
Sat 03:16:09 PM 35.8003 -96.4217 356° North 177 204 6,200 -816 Descending Kansas City Center
Sat 03:17:13 PM 35.8489 -96.4247 357° North 177 204 5,400 -768 Descending Kansas City Center
Sat 03:18:14 PM 35.8978 -96.4314 354° North 177 204 4,600 -590 Descending Kansas City Center
Sat 03:19:15 PM 35.9450 -96.4344 357° North 175 201 4,200 -480 Descending Kansas City Center
Sat 03:20:19 PM 35.9978 -96.4381 357° North 166 191 3,600 -432 Descending Kansas City Center
Sat 03:21:20 PM 36.0433 -96.4422 356° North 165 190 3,300 -198 Descending Kansas City Center
Sat 03:22:20 PM 36.0806 -96.4461 355° North 157 181 3,200 -198 Descending Kansas City Center
Sat 03:22:51 PM 36.1056 -96.4489 355° North 148 170 3,000 -329 Descending Kansas City Center
Sat 03:23:33 PM 36.1372 -96.4500 358° North 145 167 2,800 -191 Descending Kansas City Center
Sat 03:24:25 PM 36.1692 -96.4528 356° North 146 168 2,700 -159 Descending Kansas City Center
Sat 03:25:26 PM 36.2064 -96.4519 North 138 159 2,500 -240 Descending Kansas City Center
Sat 03:26:30 PM 36.2431 -96.4494 North 137 158 2,200 -403 Descending Kansas City Center
Sat 03:27:25 PM 36.2775 -96.4483 North 125 144 1,700 -421 Descending Kansas City Center
Sat 03:28:24 PM 36.2986 -96.4508 355° North 110 127 1,400 -93 Descending Kansas City Center
Sat 03:29:34 PM 36.3119 -96.4881 294° West 125 144 1,500 86 Climbing Kansas City Center

Login

Don't have an account? Register now (free) for customized features, flight alerts, and more!